Time;durP1;ratioP1;P1;durP2;ratioP2;P2;SDS_P1;SDS_P2;PMS_P1;PMS_P2;Temp;Humidity;BMP_temperature;BMP_pressure;BME280_temperature;BME280_humidity;BME280_pressure;Samples;Min_cycle;Max_cycle;Signal;HPM_P1;HPM_P2
2022/12/18 00:02:10;;;;;;;42.50;14.95;;;;;;;-6.13;100.00;96500.28;5004316;28;20042;-70
2022/12/18 00:04:36;;;;;;;41.47;13.70;;;;;;;-6.10;100.00;96489.75;5001112;28;20031;-70
2022/12/18 00:07:01;;;;;;;40.50;15.43;;;;;;;-6.05;100.00;96491.06;4993841;28;20079;-70
2022/12/18 00:09:27;;;;;;;42.90;14.25;;;;;;;-6.07;100.00;96490.41;5001407;28;20057;-70
2022/12/18 00:11:52;;;;;;;46.03;15.77;;;;;;;-6.05;100.00;96481.63;5004244;28;20496;-69
2022/12/18 00:14:18;;;;;;;35.90;14.13;;;;;;;-6.12;100.00;96478.84;4993753;28;20046;-70
2022/12/18 00:16:45;;;;;;;40.17;13.68;;;;;;;-6.08;100.00;96481.09;5008711;28;20405;-70
2022/12/18 00:19:11;;;;;;;34.85;12.35;;;;;;;-6.14;100.00;96492.72;5008021;28;20048;-70
2022/12/18 00:21:37;;;;;;;40.90;13.30;;;;;;;-6.06;100.00;96489.44;5012926;28;20053;-70
2022/12/18 00:24:03;;;;;;;40.10;13.43;;;;;;;-6.12;100.00;96490.81;5012209;28;20491;-71
2022/12/18 00:26:31;;;;;;;41.05;13.70;;;;;;;-6.10;100.00;96494.88;5001880;28;20075;-71
2022/12/18 00:29:06;;;;;;;38.65;12.73;;;;;;;-6.16;100.00;96485.19;5004127;28;20038;-71
2022/12/18 00:31:32;;;;;;;38.50;14.52;;;;;;;-6.08;100.00;96486.22;5003381;28;20049;-71
2022/12/18 00:33:58;;;;;;;32.00;12.02;;;;;;;-6.07;100.00;96492.97;5013236;28;20042;-70
2022/12/18 00:36:27;;;;;;;34.05;12.90;;;;;;;-6.20;100.00;96509.47;5009822;28;20046;-70
2022/12/18 00:38:57;;;;;;;39.92;13.73;;;;;;;-6.11;100.00;96518.06;5002817;28;20168;-70
2022/12/18 00:44:09;;;;;;;;;;;;;;;-6.17;100.00;96524.56;5004736;28;20046;-70
2022/12/18 00:46:35;;;;;;;33.58;12.95;;;;;;;-6.14;100.00;96511.47;5007636;28;20002;-70
2022/12/18 00:49:00;;;;;;;31.95;11.43;;;;;;;-6.20;100.00;96509.47;5002994;28;20487;-70
2022/12/18 00:51:26;;;;;;;34.47;12.23;;;;;;;-6.15;100.00;96511.59;5010286;28;20030;-70
2022/12/18 00:53:52;;;;;;;38.00;12.75;;;;;;;-6.16;100.00;96518.50;5002848;28;20048;-70
2022/12/18 00:56:18;;;;;;;35.55;13.55;;;;;;;-6.13;100.00;96515.66;4992863;28;20062;-70
2022/12/18 00:58:44;;;;;;;34.35;11.75;;;;;;;-6.21;100.00;96512.97;5007890;28;20053;-70
2022/12/18 01:01:09;;;;;;;29.08;11.50;;;;;;;-6.22;100.00;96521.63;5012642;28;20100;-70
2022/12/18 01:03:35;;;;;;;34.90;13.48;;;;;;;-6.21;100.00;96520.66;5006078;28;20050;-70
2022/12/18 01:06:06;;;;;;;34.08;12.68;;;;;;;-6.18;100.00;96517.81;5007559;28;20081;-70
2022/12/18 01:08:32;;;;;;;40.22;13.55;;;;;;;-6.21;100.00;96528.34;4993664;28;20042;-70
2022/12/18 01:10:57;;;;;;;43.85;13.50;;;;;;;-6.30;100.00;96534.31;5010793;28;20044;-71
2022/12/18 01:13:23;;;;;;;42.90;13.63;;;;;;;-6.32;100.00;96536.19;5009410;28;20049;-70
2022/12/18 01:15:51;;;;;;;37.67;11.65;;;;;;;-6.34;100.00;96538.09;5010801;28;20563;-70
2022/12/18 01:18:17;;;;;;;40.50;12.93;;;;;;;-6.38;100.00;96547.00;5003894;28;20043;-70
2022/12/18 01:20:42;;;;;;;33.63;12.30;;;;;;;-6.30;100.00;96545.34;5000652;28;20046;-70
2022/12/18 01:23:08;;;;;;;45.47;13.45;;;;;;;-6.32;100.00;96559.25;4996354;28;20045;-70
2022/12/18 01:25:35;;;;;;;37.25;11.90;;;;;;;-6.35;100.00;96567.22;5002525;28;20073;-69
2022/12/18 01:28:01;;;;;;;36.15;12.50;;;;;;;-6.35;100.00;96567.22;5005569;28;20052;-70
2022/12/18 01:30:27;;;;;;;39.83;12.85;;;;;;;-6.38;100.00;96567.47;5010721;28;20092;-70
2022/12/18 01:32:53;;;;;;;38.88;13.68;;;;;;;-6.35;100.00;96577.44;5011661;28;20046;-71
2022/12/18 01:35:19;;;;;;;38.67;12.55;;;;;;;-6.35;100.00;96577.44;4999633;28;20698;-71
2022/12/18 01:37:44;;;;;;;35.08;13.50;;;;;;;-6.43;100.00;96575.59;5003614;28;20044;-70
2022/12/18 01:40:10;;;;;;;34.75;11.63;;;;;;;-6.46;100.00;96566.41;5011936;28;20038;-70
2022/12/18 01:42:36;;;;;;;33.05;12.88;;;;;;;-6.44;100.00;96568.84;5009259;28;20100;-71
2022/12/18 01:45:13;;;;;;;37.38;11.80;;;;;;;-6.42;100.00;96577.22;5008281;28;20053;-70
2022/12/18 01:47:46;;;;;;;42.30;13.07;;;;;;;-6.43;100.00;96580.72;5001567;28;20046;-70
2022/12/18 01:50:19;;;;;;;43.40;14.43;;;;;;;-6.36;100.00;96592.03;4992209;28;20034;-70
2022/12/18 01:52:48;;;;;;;46.20;13.02;;;;;;;-6.39;100.00;96586.34;4995006;28;21815;-70
2022/12/18 01:55:18;;;;;;;45.25;14.15;;;;;;;-6.45;100.00;96573.16;5001474;28;20155;-70
2022/12/18 01:57:43;;;;;;;33.15;13.02;;;;;;;-6.37;100.00;96581.91;5006436;28;20113;-70
2022/12/18 02:00:20;;;;;;;44.53;14.15;;;;;;;-6.37;100.00;96584.47;5009255;28;20057;-71
2022/12/18 02:02:47;;;;;;;39.40;13.52;;;;;;;-6.39;100.00;96586.34;5008104;28;20045;-71
2022/12/18 02:05:20;;;;;;;48.45;15.27;;;;;;;-6.36;100.00;96576.66;5003540;28;20514;-71
2022/12/18 02:08:10;;;;;;;41.70;14.18;;;;;;;-6.47;100.00;96580.16;5002674;28;20490;-71
2022/12/18 02:10:48;;;;;;;51.30;16.38;;;;;;;-6.51;100.00;96573.69;5008891;28;20056;-70
2022/12/18 02:13:20;;;;;;;41.58;15.23;;;;;;;-6.42;100.00;96566.13;5011287;28;20053;-70
2022/12/18 02:16:09;;;;;;;46.30;15.25;;;;;;;-6.47;100.00;96564.78;5006764;28;20038;-70
2022/12/18 02:18:42;;;;;;;43.38;13.13;;;;;;;-6.43;100.00;96554.28;4980961;28;20057;-71
2022/12/18 02:21:25;;;;;;;48.15;14.60;;;;;;;-6.51;100.00;96558.31;5009895;28;20053;-71
2022/12/18 02:24:09;;;;;;;40.03;13.75;;;;;;;-6.49;100.00;96564.13;5011164;28;20045;-70
2022/12/18 02:26:38;;;;;;;43.00;14.48;;;;;;;-6.50;100.00;96564.28;5007746;28;20510;-70
2022/12/18 02:29:11;;;;;;;43.75;14.48;;;;;;;-6.43;100.00;96567.91;4991380;28;20060;-71
2022/12/18 02:31:47;;;;;;;46.22;14.50;;;;;;;-6.41;100.00;96562.63;4997048;28;20061;-70
2022/12/18 02:34:14;;;;;;;40.85;14.95;;;;;;;-6.31;100.00;96563.44;4994165;28;20041;-71
2022/12/18 02:36:43;;;;;;;42.00;13.60;;;;;;;-6.36;100.00;96570.72;5003811;28;20046;-71
2022/12/18 02:39:12;;;;;;;47.97;14.80;;;;;;;-6.42;100.00;96564.41;4995601;28;20039;-70
2022/12/18 02:41:38;;;;;;;38.28;14.98;;;;;;;-6.35;100.00;96562.91;4996410;28;20043;-71
2022/12/18 02:44:09;;;;;;;47.00;13.93;;;;;;;-6.27;100.00;96559.66;5009495;28;20120;-70
2022/12/18 02:46:42;;;;;;;45.53;15.02;;;;;;;-6.35;100.00;96562.09;5001587;28;20049;-70
2022/12/18 02:49:27;;;;;;;50.08;15.93;;;;;;;-6.30;100.00;96559.94;4996906;28;20169;-70
2022/12/18 02:52:20;;;;;;;40.28;14.38;;;;;;;-6.40;100.00;96559.13;5000904;28;20559;-71
2022/12/18 02:55:00;;;;;;;42.88;14.68;;;;;;;-6.34;100.00;96568.84;4994483;28;20542;-70
2022/12/18 02:57:50;;;;;;;38.33;14.13;;;;;;;-6.34;100.00;96568.84;5005900;28;20050;-69
2022/12/18 03:00:22;;;;;;;37.60;12.50;;;;;;;-6.38;100.00;96567.47;4997748;28;20543;-70
2022/12/18 03:03:07;;;;;;;40.67;16.23;;;;;;;-6.28;100.00;96568.28;5002515;28;20038;-70
2022/12/18 03:05:50;;;;;;;38.60;15.00;;;;;;;-6.30;100.00;96572.75;5000174;28;20440;-70
2022/12/18 03:08:22;;;;;;;47.10;14.77;;;;;;;-6.34;100.00;96568.84;5003372;28;20050;-70
2022/12/18 03:11:14;;;;;;;40.13;13.98;;;;;;;-6.36;100.00;96565.59;5010069;28;20080;-69
2022/12/18 03:13:45;;;;;;;42.90;14.77;;;;;;;-6.34;100.00;96553.47;4995048;28;20055;-70
2022/12/18 03:16:18;;;;;;;45.50;15.00;;;;;;;-6.35;100.00;96549.28;5004217;28;20511;-70
2022/12/18 03:18:55;;;;;;;52.35;14.75;;;;;;;-6.37;100.00;96559.66;5005546;28;20120;-71
2022/12/18 03:21:28;;;;;;;41.13;15.23;;;;;;;-6.37;100.00;96538.38;5006388;28;20419;-70
2022/12/18 03:23:55;;;;;;;42.35;14.55;;;;;;;-6.38;100.00;96547.00;5010390;28;20046;-70
2022/12/18 03:26:26;;;;;;;46.45;14.10;;;;;;;-6.31;100.00;96553.19;5003794;28;20084;-71
2022/12/18 03:29:07;;;;;;;40.50;13.88;;;;;;;-6.34;100.00;96563.72;4992962;28;20039;-70
2022/12/18 03:31:32;;;;;;;45.15;13.45;;;;;;;-6.31;100.00;96553.19;5007548;28;20042;-70
2022/12/18 03:34:02;;;;;;;38.50;13.68;;;;;;;-6.32;100.00;96552.38;5010266;28;20042;-71
2022/12/18 03:36:27;;;;;;;52.63;15.73;;;;;;;-6.36;100.00;96561.28;5004166;28;20109;-71
2022/12/18 03:38:53;;;;;;;39.72;14.02;;;;;;;-6.39;100.00;96558.19;5000920;28;20092;-70
2022/12/18 03:41:34;;;;;;;45.65;14.45;;;;;;;-6.34;100.00;96558.59;5010121;28;20042;-70
2022/12/18 03:44:11;;;;;;;43.92;14.82;;;;;;;-6.34;100.00;96568.84;5005425;28;20566;-70
2022/12/18 03:47:05;;;;;;;43.25;15.30;;;;;;;-6.40;100.00;96569.38;5006528;28;20038;-70
2022/12/18 03:49:30;;;;;;;39.78;14.35;;;;;;;-6.30;100.00;96568.41;5005326;28;20053;-70
2022/12/18 03:52:15;;;;;;;45.47;16.13;;;;;;;-6.32;100.00;96572.03;5007703;28;20038;-70
2022/12/18 03:54:44;;;;;;;46.10;15.57;;;;;;;-6.35;100.00;96562.09;5001768;28;20073;-71
2022/12/18 03:57:16;;;;;;;40.22;13.60;;;;;;;-6.31;100.00;96566.78;5013007;28;20081;-71
2022/12/18 03:59:45;;;;;;;30.88;10.85;;;;;;;-6.23;100.00;96561.00;4999347;28;20113;-70
2022/12/18 04:02:11;;;;;;;47.67;15.65;;;;;;;-6.24;100.00;96564.50;5000773;28;20092;-71
2022/12/18 04:04:38;;;;;;;43.70;14.13;;;;;;;-6.32;100.00;96567.75;4990383;28;20447;-71
2022/12/18 04:07:05;;;;;;;37.95;14.25;;;;;;;-6.17;100.00;96575.81;5009409;28;20068;-71
2022/12/18 04:09:33;;;;;;;39.28;14.10;;;;;;;-6.19;100.00;96572.59;5009244;28;20052;-72
2022/12/18 04:11:59;;;;;;;49.85;15.82;;;;;;;-6.17;100.00;96573.25;5004967;28;20050;-71
2022/12/18 04:14:24;;;;;;;45.72;14.35;;;;;;;-6.27;100.00;96569.91;4996938;28;20069;-71
2022/12/18 04:16:50;;;;;;;39.72;14.07;;;;;;;-6.27;100.00;96575.03;4995294;28;20042;-71
2022/12/18 04:19:15;;;;;;;42.67;15.10;;;;;;;-6.25;100.00;96567.19;5002818;28;20128;-71
2022/12/18 04:21:41;;;;;;;35.65;14.55;;;;;;;-6.25;100.00;96573.13;5010056;28;20046;-71
2022/12/18 04:24:06;;;;;;;46.33;15.65;;;;;;;-6.29;100.00;96576.94;5004116;28;20049;-71
2022/12/18 04:26:32;;;;;;;38.65;13.40;;;;;;;-6.32;100.00;96567.75;5012460;28;20041;-71
2022/12/18 04:28:57;;;;;;;44.92;14.90;;;;;;;-6.27;100.00;96575.03;4997272;28;20035;-70
2022/12/18 04:31:23;;;;;;;42.78;13.85;;;;;;;-6.27;100.00;96575.03;5010660;28;20092;-71
2022/12/18 04:33:49;;;;;;;40.50;15.38;;;;;;;-6.21;100.00;96579.59;5003264;28;20530;-71
2022/12/18 04:36:14;;;;;;;42.65;14.82;;;;;;;-6.24;100.00;96584.19;5012940;28;20392;-71
2022/12/18 04:38:40;;;;;;;44.90;14.35;;;;;;;-6.25;100.00;96578.25;4994070;28;20070;-70
2022/12/18 04:41:05;;;;;;;42.92;14.88;;;;;;;-6.25;100.00;96583.38;5010593;28;20458;-72
2022/12/18 04:43:32;;;;;;;43.65;14.45;;;;;;;-6.23;100.00;96576.38;5012996;28;20042;-72
2022/12/18 04:46:05;;;;;;;40.30;15.57;;;;;;;-6.33;100.00;96578.13;5012797;28;20511;-71
2022/12/18 04:48:31;;;;;;;31.48;11.77;;;;;;;-6.30;100.00;96575.31;4994942;28;20089;-71
2022/12/18 04:50:56;;;;;;;40.10;14.90;;;;;;;-6.31;100.00;96578.78;5004559;28;20038;-71
2022/12/18 04:53:22;;;;;;;36.08;14.27;;;;;;;-6.31;100.00;96594.16;5009952;28;20042;-71
2022/12/18 04:55:47;;;;;;;42.33;13.38;;;;;;;-6.30;100.00;96593.22;5000290;28;20034;-72
2022/12/18 04:58:13;;;;;;;39.40;13.10;;;;;;;-6.35;100.00;96603.06;5011336;28;20574;-71
2022/12/18 05:00:38;;;;;;;38.15;13.57;;;;;;;-6.37;100.00;96600.66;5009113;28;20041;-71
2022/12/18 05:03:04;;;;;;;35.90;14.23;;;;;;;-6.36;100.00;96596.34;4993060;28;20042;-71
2022/12/18 05:05:30;;;;;;;31.42;11.55;;;;;;;-6.33;100.00;96601.19;5012812;28;20049;-71
2022/12/18 05:07:56;;;;;;;32.20;12.48;;;;;;;-6.28;100.00;96604.13;5011962;28;20038;-71
2022/12/18 05:10:21;;;;;;;37.30;13.98;;;;;;;-6.27;100.00;96601.44;5005897;28;20038;-71
2022/12/18 05:13:08;;;;;;;38.40;13.65;;;;;;;-6.34;100.00;96604.69;5011292;28;20049;-71
2022/12/18 05:15:33;;;;;;;32.17;12.77;;;;;;;-6.31;100.00;96604.41;5008711;28;20049;-71
2022/12/18 05:17:59;;;;;;;32.38;12.23;;;;;;;-6.27;100.00;96610.88;5014049;28;20043;-71
2022/12/18 05:20:26;;;;;;;38.28;12.68;;;;;;;-6.24;100.00;96620.84;4992620;28;20515;-72
2022/12/18 05:22:53;;;;;;;32.80;12.95;;;;;;;-6.24;100.00;96620.84;5005285;28;20049;-71
2022/12/18 05:25:19;;;;;;;26.65;11.98;;;;;;;-6.36;100.00;96616.84;5001960;28;20042;-71
2022/12/18 05:27:44;;;;;;;32.38;12.35;;;;;;;-6.27;100.00;96616.00;5005879;28;20038;-71
2022/12/18 05:30:11;;;;;;;31.73;11.77;;;;;;;-6.32;100.00;96613.03;5009781;28;20092;-71
2022/12/18 05:32:37;;;;;;;27.17;11.38;;;;;;;-6.27;100.00;96616.00;5011011;28;20042;-71
2022/12/18 05:35:03;;;;;;;32.90;11.70;;;;;;;-6.30;100.00;96616.28;4998234;28;20038;-71
2022/12/18 05:37:28;;;;;;;34.47;12.10;;;;;;;-6.40;100.00;96612.94;4999314;28;20053;-70
2022/12/18 05:39:54;;;;;;;32.42;12.95;;;;;;;-6.38;100.00;96611.03;4999129;28;20444;-71
2022/12/18 05:42:20;;;;;;;41.95;14.60;;;;;;;-6.39;100.00;96622.22;4997799;28;20385;-71
2022/12/18 05:44:45;;;;;;;31.08;11.23;;;;;;;-6.35;100.00;96633.81;5002295;28;20053;-71
2022/12/18 05:47:11;;;;;;;34.38;11.82;;;;;;;-6.36;100.00;96633.00;5010882;28;20045;-71
2022/12/18 05:49:36;;;;;;;26.30;10.93;;;;;;;-6.40;100.00;96625.75;5001634;28;20050;-71
2022/12/18 05:52:02;;;;;;;35.97;12.48;;;;;;;-6.45;100.00;96624.38;5006263;28;20042;-71
2022/12/18 05:54:28;;;;;;;33.60;11.95;;;;;;;-6.41;100.00;96624.13;5002948;28;20042;-71
2022/12/18 05:56:54;;;;;;;32.83;11.90;;;;;;;-6.41;100.00;96635.16;4998960;28;20046;-72
2022/12/18 05:59:19;;;;;;;39.08;13.40;;;;;;;-6.36;100.00;96627.88;5011363;28;20637;-72
2022/12/18 06:01:45;;;;;;;35.47;12.32;;;;;;;-6.32;100.00;96638.66;5001742;28;20037;-71
2022/12/18 06:04:11;;;;;;;32.28;11.93;;;;;;;-6.43;100.00;96631.94;4995305;28;20408;-71
2022/12/18 06:06:37;;;;;;;33.00;12.30;;;;;;;-6.40;100.00;96631.66;4996549;28;20575;-71
2022/12/18 06:09:07;;;;;;;38.38;12.38;;;;;;;-6.33;100.00;96637.06;4995090;28;20407;-71
2022/12/18 06:11:35;;;;;;;36.47;13.27;;;;;;;-6.42;100.00;96636.13;5007902;28;20042;-71
2022/12/18 06:14:01;;;;;;;32.25;12.70;;;;;;;-6.38;100.00;96636.66;5005742;28;20046;-71
2022/12/18 06:16:28;;;;;;;28.00;11.05;;;;;;;-6.30;100.00;96639.34;5003982;28;20054;-71
2022/12/18 06:19:01;;;;;;;37.42;13.48;;;;;;;-6.31;100.00;96641.06;4998871;28;20042;-71
2022/12/18 06:21:27;;;;;;;24.95;10.70;;;;;;;-6.48;100.00;96645.16;5002413;28;20049;-71
2022/12/18 06:23:53;;;;;;;32.20;11.60;;;;;;;-6.54;100.00;96632.88;5004924;28;20073;-71
2022/12/18 06:26:19;;;;;;;39.08;12.85;;;;;;;-6.54;100.00;96635.41;5007229;28;20050;-71
2022/12/18 06:28:44;;;;;;;28.65;11.98;;;;;;;-6.46;100.00;96638.13;5002648;28;20726;-76
2022/12/18 06:31:10;;;;;;;34.20;11.75;;;;;;;-6.56;100.00;96645.00;5007546;28;20049;-70
2022/12/18 06:33:37;;;;;;;35.83;13.35;;;;;;;-6.50;100.00;96652.13;5005984;28;20050;-70
2022/12/18 06:36:21;;;;;;;28.63;11.02;;;;;;;-6.45;100.00;96650.00;5002291;28;20042;-71
2022/12/18 06:38:46;;;;;;;30.13;11.23;;;;;;;-6.42;100.00;96653.22;5000917;28;20140;-71
2022/12/18 06:41:20;;;;;;;31.23;11.00;;;;;;;-6.48;100.00;96655.41;4997699;28;20517;-71
2022/12/18 06:43:46;;;;;;;31.80;11.65;;;;;;;-6.41;100.00;96659.97;4996738;28;20038;-70
2022/12/18 06:46:12;;;;;;;34.95;11.25;;;;;;;-6.52;100.00;96661.72;4992340;28;20497;-71
2022/12/18 06:48:38;;;;;;;34.28;12.95;;;;;;;-6.65;100.00;96663.72;4997240;28;20053;-70
2022/12/18 06:51:04;;;;;;;37.30;13.88;;;;;;;-6.57;100.00;96670.75;5008542;28;20500;-69
2022/12/18 06:53:31;;;;;;;32.20;11.60;;;;;;;-6.57;100.00;96671.53;5002381;28;20054;-66
2022/12/18 06:56:05;;;;;;;34.35;12.25;;;;;;;-6.61;100.00;96670.19;5007140;28;20044;-69
2022/12/18 06:58:30;;;;;;;31.90;11.93;;;;;;;-6.47;100.00;96672.34;5001123;28;20073;-69
2022/12/18 07:01:04;;;;;;;37.15;12.23;;;;;;;-6.53;100.00;96678.03;4999411;28;20120;-69
2022/12/18 07:03:30;;;;;;;32.72;13.07;;;;;;;-6.52;100.00;96684.78;5008281;28;20411;-69
2022/12/18 07:05:56;;;;;;;30.70;11.73;;;;;;;-6.56;100.00;96687.75;4991790;28;20066;-69
2022/12/18 07:08:21;;;;;;;33.70;12.35;;;;;;;-6.52;100.00;96692.47;5006559;28;20454;-69
2022/12/18 07:10:48;;;;;;;34.40;12.07;;;;;;;-6.57;100.00;96692.03;4998531;28;20050;-69
2022/12/18 07:13:15;;;;;;;35.03;11.93;;;;;;;-6.62;100.00;96691.63;5009444;28;20431;-68
2022/12/18 07:15:41;;;;;;;30.67;12.38;;;;;;;-6.62;100.00;96689.06;5002290;28;20443;-70
2022/12/18 07:18:06;;;;;;;27.02;11.30;;;;;;;-6.52;100.00;96700.13;4997086;28;20039;-68
2022/12/18 07:20:32;;;;;;;37.58;12.23;;;;;;;-6.48;100.00;96706.63;4992793;28;20485;-68
2022/12/18 07:22:57;;;;;;;29.73;11.75;;;;;;;-6.49;100.00;96699.88;5005328;28;20045;-69
2022/12/18 07:25:23;;;;;;;32.15;11.55;;;;;;;-6.63;100.00;96702.81;5007896;28;20042;-69
2022/12/18 07:27:48;;;;;;;30.10;11.68;;;;;;;-6.59;100.00;96709.28;4998124;28;20034;-68
2022/12/18 07:30:14;;;;;;;31.70;10.65;;;;;;;-6.59;100.00;96704.19;5005212;28;20051;-69
2022/12/18 07:32:40;;;;;;;28.48;11.70;;;;;;;-6.59;100.00;96714.41;4999119;28;20046;-70
2022/12/18 07:35:06;;;;;;;38.63;13.52;;;;;;;-6.65;100.00;96714.91;5007916;28;20049;-69
2022/12/18 07:37:31;;;;;;;32.47;11.68;;;;;;;-6.45;100.00;96716.59;5001438;28;20054;-70
2022/12/18 07:39:57;;;;;;;25.85;10.65;;;;;;;-6.56;100.00;96709.03;5008701;28;20479;-69
2022/12/18 07:42:31;;;;;;;35.80;11.77;;;;;;;-6.62;100.00;96709.56;4993728;28;20423;-69
2022/12/18 07:45:01;;;;;;;30.95;12.07;;;;;;;-6.62;100.00;96699.31;4993876;28;20038;-69
2022/12/18 07:47:27;;;;;;;31.85;11.80;;;;;;;-6.54;100.00;96707.13;4993790;28;20464;-69
2022/12/18 07:49:53;;;;;;;33.60;12.82;;;;;;;-6.45;100.00;96706.34;4999727;28;20088;-69
2022/12/18 07:52:19;;;;;;;34.88;12.13;;;;;;;-6.46;100.00;96699.59;5013203;28;20049;-69
2022/12/18 07:54:44;;;;;;;27.65;10.98;;;;;;;-6.47;100.00;96702.28;5010501;28;20030;-68
2022/12/18 07:57:11;;;;;;;38.03;12.02;;;;;;;-6.55;100.00;96705.53;5003606;28;20487;-69
2022/12/18 07:59:36;;;;;;;33.20;12.52;;;;;;;-6.42;100.00;96705.28;5012380;28;20046;-69
2022/12/18 08:02:02;;;;;;;32.35;12.25;;;;;;;-6.40;100.00;96702.59;5008503;28;20105;-70
2022/12/18 08:04:28;;;;;;;37.20;12.27;;;;;;;-6.41;100.00;96716.31;4995844;28;20038;-69
2022/12/18 08:06:53;;;;;;;30.45;11.02;;;;;;;-6.27;100.00;96718.50;5004909;28;20058;-69
2022/12/18 08:09:19;;;;;;;31.52;11.07;;;;;;;-6.51;100.00;96706.84;5011675;28;20468;-69
2022/12/18 08:11:45;;;;;;;32.10;11.63;;;;;;;-6.48;100.00;96719.44;5012137;28;20045;-69
2022/12/18 08:14:10;;;;;;;31.13;12.30;;;;;;;-6.41;100.00;96727.38;5009157;28;20068;-71
2022/12/18 08:16:36;;;;;;;27.85;11.93;;;;;;;-6.40;100.00;96725.63;4995977;28;20035;-71
2022/12/18 08:19:02;;;;;;;34.72;12.65;;;;;;;-6.47;100.00;96733.81;5004340;28;20512;-71
2022/12/18 08:21:30;;;;;;;31.08;11.57;;;;;;;-6.45;100.00;96737.09;5009079;28;20043;-75
2022/12/18 08:23:58;;;;;;;26.33;10.23;;;;;;;-6.44;100.00;96740.44;5009856;28;20042;-71
2022/12/18 08:26:26;;;;;;;29.45;10.55;;;;;;;-6.32;100.00;96731.72;5002187;28;20042;-71
2022/12/18 08:28:54;;;;;;;27.17;10.70;;;;;;;-6.48;100.00;96734.78;5003608;28;20048;-71
2022/12/18 08:31:20;;;;;;;29.00;11.38;;;;;;;-6.31;100.00;96737.63;5011781;28;20042;-71
2022/12/18 08:33:49;;;;;;;30.27;12.02;;;;;;;-6.28;100.00;96745.03;5010297;28;20046;-70
2022/12/18 08:36:15;;;;;;;32.53;11.38;;;;;;;-6.26;100.00;96743.19;5006114;28;20077;-71
2022/12/18 08:38:40;;;;;;;31.35;11.07;;;;;;;-6.20;100.00;96734.94;5012063;28;20033;-75
2022/12/18 08:41:09;;;;;;;30.83;12.13;;;;;;;-6.31;100.00;96738.44;5009594;28;20500;-71
2022/12/18 08:46:21;;;;;;;22.77;9.27;;;;;;;-6.49;100.00;96740.84;5005041;28;20038;-71
2022/12/18 08:48:47;;;;;;;24.10;9.57;;;;;;;-6.46;100.00;96735.47;5001018;28;20065;-71
2022/12/18 08:51:13;;;;;;;31.23;10.88;;;;;;;-6.43;100.00;96748.97;5005781;28;20037;-70
2022/12/18 08:53:38;;;;;;;30.42;12.80;;;;;;;-6.60;100.00;96753.75;5005608;28;20042;-71
2022/12/18 08:56:04;;;;;;;29.35;12.50;;;;;;;-6.62;100.00;96750.53;5008705;28;20038;-71
2022/12/18 08:58:30;;;;;;;26.55;10.07;;;;;;;-6.53;100.00;96749.72;5009389;28;20519;-71
2022/12/18 09:01:05;;;;;;;27.50;10.02;;;;;;;-6.46;100.00;96734.66;5006634;28;20051;-70
2022/12/18 09:03:30;;;;;;;32.08;12.60;;;;;;;-6.38;100.00;96736.53;5009482;28;20053;-71
2022/12/18 09:05:56;;;;;;;23.65;10.23;;;;;;;-6.12;100.00;96753.03;4999853;28;20034;-70
2022/12/18 09:08:22;;;;;;;31.35;10.80;;;;;;;-6.16;100.00;96756.81;5000992;28;20078;-70
2022/12/18 09:10:49;;;;;;;30.52;11.38;;;;;;;-6.01;100.00;96746.16;5000014;28;20048;-70
2022/12/18 09:13:16;;;;;;;31.40;10.40;;;;;;;-6.21;100.00;96753.81;5004458;28;20583;-70
2022/12/18 09:15:42;;;;;;;26.80;10.45;;;;;;;-6.13;100.00;96756.53;5007373;28;20053;-70
2022/12/18 09:18:09;;;;;;;20.13;9.30;;;;;;;-6.32;100.00;96751.38;5010536;28;20042;-70
2022/12/18 09:20:36;;;;;;;27.27;10.02;;;;;;;-6.36;100.00;96750.06;5012280;28;20455;-70
2022/12/18 09:23:02;;;;;;;27.35;10.80;;;;;;;-6.10;100.00;96766.50;5010581;28;20046;-70
2022/12/18 09:25:32;;;;;;;25.70;9.82;;;;;;;-6.22;100.00;96757.34;5008895;28;20038;-71
2022/12/18 09:28:24;;;;;;;28.48;10.05;;;;;;;-6.07;100.00;96757.75;4998048;28;20048;-67
2022/12/18 09:30:49;;;;;;;23.55;9.90;;;;;;;-6.11;100.00;96754.63;5005733;28;20488;-69
2022/12/18 09:33:16;;;;;;;29.17;10.27;;;;;;;-6.10;100.00;96756.25;5011040;28;20053;-69
2022/12/18 09:35:44;;;;;;;27.80;10.50;;;;;;;-5.93;100.00;96746.28;5015504;28;20096;-70
2022/12/18 09:38:17;;;;;;;24.27;9.90;;;;;;;-5.95;100.00;96750.69;5004438;28;20076;-71
2022/12/18 09:40:56;;;;;;;34.35;10.57;;;;;;;-5.85;100.00;96743.81;5020973;28;20046;-68
2022/12/18 09:43:27;;;;;;;30.40;10.45;;;;;;;-5.87;100.00;96740.59;5021498;28;20042;-67
2022/12/18 09:45:58;;;;;;;29.23;11.80;;;;;;;-5.92;100.00;96747.88;5031956;28;20085;-68
2022/12/18 09:48:29;;;;;;;26.52;10.55;;;;;;;-5.99;100.00;96744.25;5029226;28;20112;-67
2022/12/18 09:51:02;;;;;;;26.33;9.88;;;;;;;-5.89;100.00;96752.72;5036375;28;20258;-67
2022/12/18 09:53:35;;;;;;;27.38;10.02;;;;;;;-5.93;100.00;96753.97;5028549;28;20022;-66
2022/12/18 09:56:03;;;;;;;25.75;10.27;;;;;;;-6.28;100.00;96742.50;5017950;28;20026;-67
2022/12/18 09:58:40;;;;;;;23.33;8.23;;;;;;;-6.21;100.00;96738.44;5026476;28;20030;-67
2022/12/18 10:01:18;;;;;;;25.45;9.50;;;;;;;-6.06;100.00;96735.47;5016167;28;20056;-70
2022/12/18 10:03:44;;;;;;;37.88;12.30;;;;;;;-6.21;100.00;96732.53;5013238;28;20052;-70
2022/12/18 10:06:26;;;;;;;36.70;12.38;;;;;;;-6.00;100.00;96734.97;5005098;28;20671;-69
2022/12/18 10:09:06;;;;;;;27.23;10.70;;;;;;;-5.98;100.00;96738.19;5008646;28;20054;-70
2022/12/18 10:11:56;;;;;;;26.20;11.00;;;;;;;-6.28;100.00;96737.38;5010773;28;20136;-69
2022/12/18 10:14:39;;;;;;;29.80;11.05;;;;;;;-6.26;100.00;96730.38;5011436;28;20050;-70
2022/12/18 10:17:43;;;;;;;31.85;10.80;;;;;;;-6.15;100.00;96722.56;4999898;28;20041;-69
2022/12/18 10:20:30;;;;;;;26.80;9.10;;;;;;;-6.42;100.00;96714.69;4988800;28;20468;-69
2022/12/18 10:23:32;;;;;;;32.80;11.25;;;;;;;-6.35;100.00;96720.91;5005422;28;20302;-69
2022/12/18 10:26:07;;;;;;;28.45;9.57;;;;;;;-6.27;100.00;96718.50;5004254;28;20450;-69
2022/12/18 10:28:39;;;;;;;27.67;11.02;;;;;;;-6.26;100.00;96720.13;5007126;28;20050;-67
2022/12/18 10:31:15;;;;;;;21.17;9.45;;;;;;;-6.12;100.00;96704.34;5006944;28;20070;-68
2022/12/18 10:33:41;;;;;;;21.88;9.40;;;;;;;-5.94;100.00;96703.63;5008841;28;20049;-68
2022/12/18 10:36:07;;;;;;;23.58;9.68;;;;;;;-5.87;100.00;96704.69;5001613;28;20048;-68
2022/12/18 10:38:33;;;;;;;28.17;10.50;;;;;;;-5.76;100.00;96691.72;5010245;28;20049;-73
2022/12/18 10:41:00;;;;;;;26.52;11.13;;;;;;;-5.98;100.00;96702.31;5012527;28;20041;-68
2022/12/18 10:43:33;;;;;;;23.70;10.48;;;;;;;-6.13;100.00;96702.72;5004680;28;20057;-68
2022/12/18 10:46:00;;;;;;;27.63;10.30;;;;;;;-6.40;100.00;96697.47;5006229;28;20054;-68
2022/12/18 10:48:27;;;;;;;31.75;10.60;;;;;;;-6.22;100.00;96700.97;5005888;28;20046;-69
2022/12/18 10:50:53;;;;;;;24.45;9.43;;;;;;;-5.91;100.00;96695.66;5012098;28;20141;-70
2022/12/18 10:53:33;;;;;;;31.52;11.80;;;;;;;-5.92;100.00;96697.41;4995127;28;20062;-70
2022/12/18 10:56:04;;;;;;;21.58;9.90;;;;;;;-5.78;100.00;96698.72;4991208;28;20042;-69
2022/12/18 10:58:36;;;;;;;28.40;9.60;;;;;;;-5.87;100.00;96691.88;5007620;28;20431;-68
2022/12/18 11:01:07;;;;;;;27.08;10.93;;;;;;;-5.99;100.00;96700.69;4996755;28;20050;-68
2022/12/18 11:03:41;;;;;;;27.55;9.82;;;;;;;-5.85;100.00;96696.88;5007796;28;20499;-68
2022/12/18 11:06:12;;;;;;;24.83;8.95;;;;;;;-5.75;100.00;96703.63;4991093;28;20042;-69
2022/12/18 11:08:38;;;;;;;25.63;10.73;;;;;;;-5.85;100.00;96705.34;5008682;28;20073;-68
2022/12/18 11:11:16;;;;;;;23.92;9.52;;;;;;;-5.92;100.00;96711.97;5005486;28;20049;-68
2022/12/18 11:13:54;;;;;;;24.27;9.55;;;;;;;-5.84;100.00;96717.25;5004472;28;20042;-69
2022/12/18 11:16:20;;;;;;;26.73;10.95;;;;;;;-5.44;100.00;96711.09;5007276;28;20037;-71
2022/12/18 11:18:46;;;;;;;20.77;9.32;;;;;;;-5.47;100.00;96716.50;5006938;28;20577;-70
2022/12/18 11:21:13;;;;;;;24.95;10.18;;;;;;;-5.34;100.00;96720.50;5005511;28;20045;-70
2022/12/18 11:23:49;;;;;;;25.27;9.57;;;;;;;-5.58;100.00;96719.22;5001033;28;20550;-70
2022/12/18 11:26:14;;;;;;;25.73;10.60;;;;;;;-6.07;100.00;96715.94;5011851;28;20061;-70